sensor_id;sensor_type;location;lat;lon;timestamp;P1;durP1;ratioP1;P2;durP2;ratioP2
11646;SDS011;5880;52.342;9.662;2022-07-29T00:00:00;1.08;;;0.80;;
11646;SDS011;5880;52.342;9.662;2022-07-29T00:02:26;1.38;;;1.00;;
11646;SDS011;5880;52.342;9.662;2022-07-29T00:04:53;1.65;;;0.82;;
11646;SDS011;5880;52.342;9.662;2022-07-29T00:07:19;1.27;;;0.85;;
11646;SDS011;5880;52.342;9.662;2022-07-29T00:09:45;0.90;;;0.73;;
11646;SDS011;5880;52.342;9.662;2022-07-29T00:12:10;1.50;;;1.00;;
11646;SDS011;5880;52.342;9.662;2022-07-29T00:14:36;1.77;;;1.02;;
11646;SDS011;5880;52.342;9.662;2022-07-29T00:17:02;0.77;;;0.77;;
11646;SDS011;5880;52.342;9.662;2022-07-29T00:19:28;1.02;;;0.77;;
11646;SDS011;5880;52.342;9.662;2022-07-29T00:21:53;0.80;;;0.80;;
11646;SDS011;5880;52.342;9.662;2022-07-29T00:24:19;1.45;;;0.85;;
11646;SDS011;5880;52.342;9.662;2022-07-29T00:26:44;0.88;;;0.80;;
11646;SDS011;5880;52.342;9.662;2022-07-29T00:29:10;0.80;;;0.80;;
11646;SDS011;5880;52.342;9.662;2022-07-29T00:31:36;1.45;;;0.80;;
11646;SDS011;5880;52.342;9.662;2022-07-29T00:34:01;2.08;;;0.90;;
11646;SDS011;5880;52.342;9.662;2022-07-29T00:36:27;3.17;;;1.00;;
11646;SDS011;5880;52.342;9.662;2022-07-29T00:38:53;1.77;;;1.05;;
11646;SDS011;5880;52.342;9.662;2022-07-29T00:41:19;1.17;;;1.00;;
11646;SDS011;5880;52.342;9.662;2022-07-29T00:43:45;0.90;;;0.65;;
11646;SDS011;5880;52.342;9.662;2022-07-29T00:46:11;2.60;;;1.00;;
11646;SDS011;5880;52.342;9.662;2022-07-29T00:48:37;1.23;;;0.80;;
11646;SDS011;5880;52.342;9.662;2022-07-29T00:51:03;1.48;;;1.00;;
11646;SDS011;5880;52.342;9.662;2022-07-29T00:53:32;1.30;;;1.10;;
11646;SDS011;5880;52.342;9.662;2022-07-29T00:56:00;1.42;;;0.98;;
11646;SDS011;5880;52.342;9.662;2022-07-29T00:58:26;0.95;;;0.95;;
11646;SDS011;5880;52.342;9.662;2022-07-29T01:00:52;1.33;;;1.10;;
11646;SDS011;5880;52.342;9.662;2022-07-29T01:03:18;1.45;;;0.90;;
11646;SDS011;5880;52.342;9.662;2022-07-29T01:05:44;0.95;;;0.73;;
11646;SDS011;5880;52.342;9.662;2022-07-29T01:08:12;0.85;;;0.85;;
11646;SDS011;5880;52.342;9.662;2022-07-29T01:10:40;1.42;;;1.00;;
11646;SDS011;5880;52.342;9.662;2022-07-29T01:13:08;2.35;;;1.10;;
11646;SDS011;5880;52.342;9.662;2022-07-29T01:18:28;1.70;;;0.88;;
11646;SDS011;5880;52.342;9.662;2022-07-29T01:21:10;1.23;;;1.00;;
11646;SDS011;5880;52.342;9.662;2022-07-29T01:23:59;1.40;;;1.08;;
11646;SDS011;5880;52.342;9.662;2022-07-29T01:26:49;1.60;;;0.95;;
11646;SDS011;5880;52.342;9.662;2022-07-29T01:32:10;1.00;;;0.90;;
11646;SDS011;5880;52.342;9.662;2022-07-29T01:34:57;1.27;;;1.10;;
11646;SDS011;5880;52.342;9.662;2022-07-29T01:37:33;2.03;;;0.93;;
11646;SDS011;5880;52.342;9.662;2022-07-29T01:40:38;1.00;;;0.88;;
11646;SDS011;5880;52.342;9.662;2022-07-29T01:43:14;0.70;;;0.70;;
11646;SDS011;5880;52.342;9.662;2022-07-29T01:45:46;2.58;;;0.85;;
11646;SDS011;5880;52.342;9.662;2022-07-29T01:51:19;2.38;;;0.90;;
11646;SDS011;5880;52.342;9.662;2022-07-29T01:54:08;1.38;;;0.93;;
11646;SDS011;5880;52.342;9.662;2022-07-29T01:56:58;2.30;;;1.05;;
11646;SDS011;5880;52.342;9.662;2022-07-29T01:59:26;2.53;;;1.10;;
11646;SDS011;5880;52.342;9.662;2022-07-29T02:01:54;1.35;;;0.80;;
11646;SDS011;5880;52.342;9.662;2022-07-29T02:04:23;1.70;;;0.95;;
11646;SDS011;5880;52.342;9.662;2022-07-29T02:06:53;1.43;;;1.27;;
11646;SDS011;5880;52.342;9.662;2022-07-29T02:09:23;2.35;;;1.10;;
11646;SDS011;5880;52.342;9.662;2022-07-29T02:11:52;3.17;;;1.10;;
11646;SDS011;5880;52.342;9.662;2022-07-29T02:14:21;1.00;;;0.90;;
11646;SDS011;5880;52.342;9.662;2022-07-29T02:16:48;1.10;;;0.93;;
11646;SDS011;5880;52.342;9.662;2022-07-29T02:19:19;1.70;;;1.07;;
11646;SDS011;5880;52.342;9.662;2022-07-29T02:21:50;1.07;;;0.90;;
11646;SDS011;5880;52.342;9.662;2022-07-29T02:24:18;1.00;;;0.88;;
11646;SDS011;5880;52.342;9.662;2022-07-29T02:26:47;2.00;;;0.80;;
11646;SDS011;5880;52.342;9.662;2022-07-29T02:29:16;1.20;;;0.80;;
11646;SDS011;5880;52.342;9.662;2022-07-29T02:31:47;1.23;;;0.97;;
11646;SDS011;5880;52.342;9.662;2022-07-29T02:34:16;1.00;;;1.00;;
11646;SDS011;5880;52.342;9.662;2022-07-29T02:36:44;1.13;;;0.90;;
11646;SDS011;5880;52.342;9.662;2022-07-29T02:39:11;1.80;;;1.00;;
11646;SDS011;5880;52.342;9.662;2022-07-29T02:41:52;0.90;;;0.90;;
11646;SDS011;5880;52.342;9.662;2022-07-29T02:44:27;2.07;;;1.00;;
11646;SDS011;5880;52.342;9.662;2022-07-29T02:49:52;2.50;;;0.90;;
11646;SDS011;5880;52.342;9.662;2022-07-29T02:52:31;1.33;;;1.03;;
11646;SDS011;5880;52.342;9.662;2022-07-29T03:00:53;1.07;;;0.70;;
11646;SDS011;5880;52.342;9.662;2022-07-29T03:03:23;1.63;;;1.10;;
11646;SDS011;5880;52.342;9.662;2022-07-29T03:05:55;0.70;;;0.70;;
11646;SDS011;5880;52.342;9.662;2022-07-29T03:08:24;1.43;;;1.00;;
11646;SDS011;5880;52.342;9.662;2022-07-29T03:10:52;1.90;;;1.17;;
11646;SDS011;5880;52.342;9.662;2022-07-29T03:13:19;1.03;;;0.93;;
11646;SDS011;5880;52.342;9.662;2022-07-29T03:15:46;1.80;;;1.00;;
11646;SDS011;5880;52.342;9.662;2022-07-29T03:18:13;1.70;;;1.00;;
11646;SDS011;5880;52.342;9.662;2022-07-29T03:20:40;3.20;;;0.93;;
11646;SDS011;5880;52.342;9.662;2022-07-29T03:23:07;1.37;;;0.90;;
11646;SDS011;5880;52.342;9.662;2022-07-29T03:25:33;1.33;;;1.20;;
11646;SDS011;5880;52.342;9.662;2022-07-29T03:27:59;1.20;;;1.10;;
11646;SDS011;5880;52.342;9.662;2022-07-29T03:30:25;1.03;;;0.97;;
11646;SDS011;5880;52.342;9.662;2022-07-29T03:32:52;1.33;;;0.97;;
11646;SDS011;5880;52.342;9.662;2022-07-29T03:35:18;2.03;;;0.97;;
11646;SDS011;5880;52.342;9.662;2022-07-29T03:37:45;1.10;;;1.00;;
11646;SDS011;5880;52.342;9.662;2022-07-29T03:40:12;1.67;;;1.07;;
11646;SDS011;5880;52.342;9.662;2022-07-29T03:42:45;3.03;;;1.02;;
11646;SDS011;5880;52.342;9.662;2022-07-29T03:45:12;1.83;;;1.00;;
11646;SDS011;5880;52.342;9.662;2022-07-29T03:47:44;1.60;;;0.97;;
11646;SDS011;5880;52.342;9.662;2022-07-29T03:50:15;1.20;;;1.10;;
11646;SDS011;5880;52.342;9.662;2022-07-29T03:52:44;1.80;;;1.20;;
11646;SDS011;5880;52.342;9.662;2022-07-29T03:55:10;3.33;;;1.20;;
11646;SDS011;5880;52.342;9.662;2022-07-29T03:57:36;2.20;;;1.30;;
11646;SDS011;5880;52.342;9.662;2022-07-29T04:00:05;2.00;;;1.10;;
11646;SDS011;5880;52.342;9.662;2022-07-29T04:02:32;1.20;;;1.03;;
11646;SDS011;5880;52.342;9.662;2022-07-29T04:04:58;1.97;;;1.10;;
11646;SDS011;5880;52.342;9.662;2022-07-29T04:07:24;1.67;;;1.20;;
11646;SDS011;5880;52.342;9.662;2022-07-29T04:09:49;1.57;;;1.10;;
11646;SDS011;5880;52.342;9.662;2022-07-29T04:12:15;1.97;;;1.20;;
11646;SDS011;5880;52.342;9.662;2022-07-29T04:14:41;1.20;;;1.10;;
11646;SDS011;5880;52.342;9.662;2022-07-29T04:17:07;1.73;;;1.07;;
11646;SDS011;5880;52.342;9.662;2022-07-29T04:19:33;1.87;;;1.30;;
11646;SDS011;5880;52.342;9.662;2022-07-29T04:21:59;2.00;;;1.20;;
11646;SDS011;5880;52.342;9.662;2022-07-29T04:24:25;1.93;;;1.10;;
11646;SDS011;5880;52.342;9.662;2022-07-29T04:26:51;1.30;;;1.20;;
11646;SDS011;5880;52.342;9.662;2022-07-29T04:29:17;2.23;;;1.33;;
11646;SDS011;5880;52.342;9.662;2022-07-29T04:31:43;1.03;;;1.00;;
11646;SDS011;5880;52.342;9.662;2022-07-29T04:34:09;2.07;;;1.13;;
11646;SDS011;5880;52.342;9.662;2022-07-29T04:36:35;1.70;;;1.33;;
11646;SDS011;5880;52.342;9.662;2022-07-29T04:39:02;2.17;;;1.17;;
11646;SDS011;5880;52.342;9.662;2022-07-29T04:41:28;1.53;;;1.00;;
11646;SDS011;5880;52.342;9.662;2022-07-29T04:43:54;1.93;;;1.40;;
11646;SDS011;5880;52.342;9.662;2022-07-29T04:46:20;1.30;;;1.13;;
11646;SDS011;5880;52.342;9.662;2022-07-29T04:48:47;1.60;;;1.40;;
11646;SDS011;5880;52.342;9.662;2022-07-29T04:51:13;1.57;;;1.20;;
11646;SDS011;5880;52.342;9.662;2022-07-29T04:53:42;1.30;;;1.10;;
11646;SDS011;5880;52.342;9.662;2022-07-29T04:56:08;1.40;;;1.13;;
11646;SDS011;5880;52.342;9.662;2022-07-29T04:58:34;1.47;;;1.30;;
11646;SDS011;5880;52.342;9.662;2022-07-29T05:01:00;2.20;;;1.27;;
11646;SDS011;5880;52.342;9.662;2022-07-29T05:03:26;1.87;;;1.00;;
11646;SDS011;5880;52.342;9.662;2022-07-29T05:05:52;3.17;;;1.40;;
11646;SDS011;5880;52.342;9.662;2022-07-29T05:08:18;2.10;;;1.33;;
11646;SDS011;5880;52.342;9.662;2022-07-29T05:10:43;1.67;;;1.40;;
11646;SDS011;5880;52.342;9.662;2022-07-29T05:13:10;2.63;;;1.57;;
11646;SDS011;5880;52.342;9.662;2022-07-29T05:15:35;1.30;;;1.20;;
11646;SDS011;5880;52.342;9.662;2022-07-29T05:18:02;3.37;;;1.40;;
11646;SDS011;5880;52.342;9.662;2022-07-29T05:20:29;1.40;;;1.10;;
11646;SDS011;5880;52.342;9.662;2022-07-29T05:22:56;2.67;;;1.30;;
11646;SDS011;5880;52.342;9.662;2022-07-29T05:25:24;2.20;;;1.23;;
11646;SDS011;5880;52.342;9.662;2022-07-29T05:27:51;2.13;;;1.60;;
11646;SDS011;5880;52.342;9.662;2022-07-29T05:30:17;1.40;;;1.30;;
11646;SDS011;5880;52.342;9.662;2022-07-29T05:32:43;1.83;;;1.30;;
11646;SDS011;5880;52.342;9.662;2022-07-29T05:35:09;1.43;;;1.30;;
11646;SDS011;5880;52.342;9.662;2022-07-29T05:37:35;2.03;;;1.33;;
11646;SDS011;5880;52.342;9.662;2022-07-29T05:40:01;4.00;;;1.43;;
11646;SDS011;5880;52.342;9.662;2022-07-29T05:42:27;2.07;;;1.50;;
11646;SDS011;5880;52.342;9.662;2022-07-29T05:44:54;2.60;;;1.27;;
11646;SDS011;5880;52.342;9.662;2022-07-29T05:47:20;2.43;;;1.37;;
11646;SDS011;5880;52.342;9.662;2022-07-29T05:49:47;1.60;;;1.42;;
11646;SDS011;5880;52.342;9.662;2022-07-29T05:52:13;1.40;;;1.30;;
11646;SDS011;5880;52.342;9.662;2022-07-29T05:54:39;2.47;;;1.50;;
11646;SDS011;5880;52.342;9.662;2022-07-29T05:57:05;2.40;;;1.43;;
11646;SDS011;5880;52.342;9.662;2022-07-29T05:59:31;1.77;;;1.20;;
11646;SDS011;5880;52.342;9.662;2022-07-29T06:02:01;2.42;;;1.50;;
11646;SDS011;5880;52.342;9.662;2022-07-29T06:04:27;1.73;;;1.60;;
11646;SDS011;5880;52.342;9.662;2022-07-29T06:06:53;1.70;;;1.60;;
11646;SDS011;5880;52.342;9.662;2022-07-29T06:09:19;2.85;;;1.50;;
11646;SDS011;5880;52.342;9.662;2022-07-29T06:11:44;2.00;;;1.43;;
11646;SDS011;5880;52.342;9.662;2022-07-29T06:14:10;3.17;;;1.60;;
11646;SDS011;5880;52.342;9.662;2022-07-29T06:16:35;2.40;;;1.40;;
11646;SDS011;5880;52.342;9.662;2022-07-29T06:19:01;3.88;;;1.58;;
11646;SDS011;5880;52.342;9.662;2022-07-29T06:21:27;2.88;;;1.67;;
11646;SDS011;5880;52.342;9.662;2022-07-29T06:23:53;4.43;;;1.60;;
11646;SDS011;5880;52.342;9.662;2022-07-29T06:26:18;2.10;;;1.50;;
11646;SDS011;5880;52.342;9.662;2022-07-29T06:28:44;2.65;;;1.65;;
11646;SDS011;5880;52.342;9.662;2022-07-29T06:31:09;2.05;;;1.50;;
11646;SDS011;5880;52.342;9.662;2022-07-29T06:33:35;2.63;;;1.50;;
11646;SDS011;5880;52.342;9.662;2022-07-29T06:36:03;2.13;;;1.40;;
11646;SDS011;5880;52.342;9.662;2022-07-29T06:38:30;3.80;;;1.35;;
11646;SDS011;5880;52.342;9.662;2022-07-29T06:40:57;1.75;;;1.27;;
11646;SDS011;5880;52.342;9.662;2022-07-29T06:43:35;2.20;;;1.42;;
11646;SDS011;5880;52.342;9.662;2022-07-29T06:46:15;3.67;;;1.58;;
11646;SDS011;5880;52.342;9.662;2022-07-29T06:48:43;4.10;;;1.50;;
11646;SDS011;5880;52.342;9.662;2022-07-29T06:51:09;3.17;;;1.85;;
11646;SDS011;5880;52.342;9.662;2022-07-29T06:53:36;2.47;;;1.70;;
11646;SDS011;5880;52.342;9.662;2022-07-29T06:56:03;2.88;;;1.52;;
11646;SDS011;5880;52.342;9.662;2022-07-29T06:58:33;3.90;;;1.67;;
11646;SDS011;5880;52.342;9.662;2022-07-29T07:01:00;3.33;;;1.63;;
11646;SDS011;5880;52.342;9.662;2022-07-29T07:03:29;2.35;;;1.58;;
11646;SDS011;5880;52.342;9.662;2022-07-29T07:05:54;1.92;;;1.50;;
11646;SDS011;5880;52.342;9.662;2022-07-29T07:08:21;3.47;;;1.60;;
11646;SDS011;5880;52.342;9.662;2022-07-29T07:10:48;1.80;;;1.30;;
11646;SDS011;5880;52.342;9.662;2022-07-29T07:13:18;1.73;;;1.42;;
11646;SDS011;5880;52.342;9.662;2022-07-29T07:15:44;1.90;;;1.42;;
11646;SDS011;5880;52.342;9.662;2022-07-29T07:18:12;1.98;;;1.45;;
11646;SDS011;5880;52.342;9.662;2022-07-29T07:20:40;2.83;;;1.60;;
11646;SDS011;5880;52.342;9.662;2022-07-29T07:23:06;2.20;;;1.50;;
11646;SDS011;5880;52.342;9.662;2022-07-29T07:25:32;2.13;;;1.50;;
11646;SDS011;5880;52.342;9.662;2022-07-29T07:27:58;2.58;;;1.60;;
11646;SDS011;5880;52.342;9.662;2022-07-29T07:30:24;1.63;;;1.50;;
11646;SDS011;5880;52.342;9.662;2022-07-29T07:32:50;2.60;;;1.48;;
11646;SDS011;5880;52.342;9.662;2022-07-29T07:35:16;1.90;;;1.52;;
11646;SDS011;5880;52.342;9.662;2022-07-29T07:37:42;2.33;;;1.58;;
11646;SDS011;5880;52.342;9.662;2022-07-29T07:40:08;3.60;;;1.60;;
11646;SDS011;5880;52.342;9.662;2022-07-29T07:42:36;4.28;;;1.40;;
11646;SDS011;5880;52.342;9.662;2022-07-29T07:45:03;1.60;;;1.50;;
11646;SDS011;5880;52.342;9.662;2022-07-29T07:47:30;2.13;;;1.45;;
11646;SDS011;5880;52.342;9.662;2022-07-29T07:49:56;2.17;;;1.55;;
11646;SDS011;5880;52.342;9.662;2022-07-29T07:52:22;3.42;;;1.70;;
11646;SDS011;5880;52.342;9.662;2022-07-29T07:54:48;2.67;;;1.70;;
11646;SDS011;5880;52.342;9.662;2022-07-29T07:57:14;3.00;;;1.55;;
11646;SDS011;5880;52.342;9.662;2022-07-29T07:59:40;3.17;;;1.80;;
11646;SDS011;5880;52.342;9.662;2022-07-29T08:02:07;1.67;;;1.58;;
11646;SDS011;5880;52.342;9.662;2022-07-29T08:04:34;3.17;;;1.58;;
11646;SDS011;5880;52.342;9.662;2022-07-29T08:07:00;2.13;;;1.70;;
11646;SDS011;5880;52.342;9.662;2022-07-29T08:09:27;2.28;;;1.60;;
11646;SDS011;5880;52.342;9.662;2022-07-29T08:11:54;2.42;;;1.70;;
11646;SDS011;5880;52.342;9.662;2022-07-29T08:14:21;2.05;;;1.58;;
11646;SDS011;5880;52.342;9.662;2022-07-29T08:16:47;3.58;;;1.90;;
11646;SDS011;5880;52.342;9.662;2022-07-29T08:19:13;2.67;;;1.60;;
11646;SDS011;5880;52.342;9.662;2022-07-29T08:21:39;3.13;;;1.83;;
11646;SDS011;5880;52.342;9.662;2022-07-29T08:24:04;2.38;;;1.80;;
11646;SDS011;5880;52.342;9.662;2022-07-29T08:26:50;2.85;;;1.80;;
11646;SDS011;5880;52.342;9.662;2022-07-29T08:29:15;2.45;;;1.70;;
11646;SDS011;5880;52.342;9.662;2022-07-29T08:31:41;3.40;;;1.77;;
11646;SDS011;5880;52.342;9.662;2022-07-29T08:34:07;2.00;;;1.80;;
11646;SDS011;5880;52.342;9.662;2022-07-29T08:36:33;2.85;;;1.77;;
11646;SDS011;5880;52.342;9.662;2022-07-29T08:39:00;6.03;;;1.67;;
11646;SDS011;5880;52.342;9.662;2022-07-29T08:41:27;2.03;;;1.83;;
11646;SDS011;5880;52.342;9.662;2022-07-29T08:43:53;2.42;;;1.77;;
11646;SDS011;5880;52.342;9.662;2022-07-29T08:46:19;2.20;;;1.83;;
11646;SDS011;5880;52.342;9.662;2022-07-29T08:48:47;2.08;;;1.50;;
11646;SDS011;5880;52.342;9.662;2022-07-29T08:51:14;1.80;;;1.60;;
11646;SDS011;5880;52.342;9.662;2022-07-29T08:53:43;3.30;;;1.65;;
11646;SDS011;5880;52.342;9.662;2022-07-29T08:56:13;2.50;;;1.70;;
11646;SDS011;5880;52.342;9.662;2022-07-29T08:58:43;2.30;;;2.00;;
11646;SDS011;5880;52.342;9.662;2022-07-29T09:01:14;2.40;;;1.80;;
11646;SDS011;5880;52.342;9.662;2022-07-29T09:03:45;2.78;;;1.77;;
11646;SDS011;5880;52.342;9.662;2022-07-29T09:06:17;4.18;;;2.03;;
11646;SDS011;5880;52.342;9.662;2022-07-29T09:08:44;3.50;;;2.30;;
11646;SDS011;5880;52.342;9.662;2022-07-29T09:11:11;3.60;;;2.30;;
11646;SDS011;5880;52.342;9.662;2022-07-29T09:13:38;3.30;;;1.90;;
11646;SDS011;5880;52.342;9.662;2022-07-29T09:16:04;5.45;;;1.90;;
11646;SDS011;5880;52.342;9.662;2022-07-29T09:18:37;2.95;;;1.90;;
11646;SDS011;5880;52.342;9.662;2022-07-29T09:21:03;2.70;;;1.88;;
11646;SDS011;5880;52.342;9.662;2022-07-29T09:24:10;2.63;;;2.03;;
11646;SDS011;5880;52.342;9.662;2022-07-29T09:26:43;4.43;;;2.85;;
11646;SDS011;5880;52.342;9.662;2022-07-29T09:29:11;3.22;;;2.20;;
11646;SDS011;5880;52.342;9.662;2022-07-29T09:31:43;2.72;;;1.65;;
11646;SDS011;5880;52.342;9.662;2022-07-29T09:34:14;2.53;;;1.95;;
11646;SDS011;5880;52.342;9.662;2022-07-29T09:36:47;2.88;;;2.03;;
11646;SDS011;5880;52.342;9.662;2022-07-29T09:39:15;2.75;;;2.00;;
11646;SDS011;5880;52.342;9.662;2022-07-29T09:41:54;3.28;;;2.00;;
11646;SDS011;5880;52.342;9.662;2022-07-29T09:44:24;5.63;;;2.00;;
11646;SDS011;5880;52.342;9.662;2022-07-29T09:46:55;5.18;;;2.05;;
11646;SDS011;5880;52.342;9.662;2022-07-29T09:49:32;3.22;;;2.10;;
11646;SDS011;5880;52.342;9.662;2022-07-29T09:52:16;2.25;;;1.63;;
11646;SDS011;5880;52.342;9.662;2022-07-29T09:54:42;4.30;;;1.80;;
11646;SDS011;5880;52.342;9.662;2022-07-29T09:57:21;1.80;;;1.70;;
11646;SDS011;5880;52.342;9.662;2022-07-29T09:59:59;2.90;;;2.03;;
11646;SDS011;5880;52.342;9.662;2022-07-29T10:02:30;3.22;;;2.10;;
11646;SDS011;5880;52.342;9.662;2022-07-29T10:04:59;2.08;;;1.75;;
11646;SDS011;5880;52.342;9.662;2022-07-29T10:07:42;2.40;;;2.00;;
11646;SDS011;5880;52.342;9.662;2022-07-29T10:10:09;2.10;;;1.90;;
11646;SDS011;5880;52.342;9.662;2022-07-29T10:12:38;2.72;;;1.90;;
11646;SDS011;5880;52.342;9.662;2022-07-29T10:15:16;3.20;;;2.10;;
11646;SDS011;5880;52.342;9.662;2022-07-29T10:17:42;2.75;;;1.88;;
11646;SDS011;5880;52.342;9.662;2022-07-29T10:20:10;2.05;;;1.75;;
11646;SDS011;5880;52.342;9.662;2022-07-29T10:22:36;2.78;;;2.17;;
11646;SDS011;5880;52.342;9.662;2022-07-29T10:25:02;2.53;;;2.00;;
11646;SDS011;5880;52.342;9.662;2022-07-29T10:27:28;2.22;;;1.83;;
11646;SDS011;5880;52.342;9.662;2022-07-29T10:29:54;2.83;;;2.20;;
11646;SDS011;5880;52.342;9.662;2022-07-29T10:39:04;2.22;;;2.00;;
11646;SDS011;5880;52.342;9.662;2022-07-29T10:44:26;3.92;;;2.10;;
11646;SDS011;5880;52.342;9.662;2022-07-29T10:46:53;2.10;;;1.88;;
11646;SDS011;5880;52.342;9.662;2022-07-29T10:49:20;2.30;;;1.70;;
11646;SDS011;5880;52.342;9.662;2022-07-29T10:57:14;2.25;;;1.70;;
11646;SDS011;5880;52.342;9.662;2022-07-29T11:05:04;3.15;;;2.00;;
11646;SDS011;5880;52.342;9.662;2022-07-29T11:10:37;2.63;;;1.92;;
11646;SDS011;5880;52.342;9.662;2022-07-29T11:13:04;3.33;;;2.17;;
11646;SDS011;5880;52.342;9.662;2022-07-29T11:15:32;3.38;;;2.08;;
11646;SDS011;5880;52.342;9.662;2022-07-29T11:18:20;2.40;;;1.80;;
11646;SDS011;5880;52.342;9.662;2022-07-29T11:20:47;2.28;;;1.77;;
11646;SDS011;5880;52.342;9.662;2022-07-29T11:23:30;2.97;;;2.08;;
11646;SDS011;5880;52.342;9.662;2022-07-29T11:28:42;4.75;;;2.30;;
11646;SDS011;5880;52.342;9.662;2022-07-29T11:34:19;3.35;;;2.28;;
11646;SDS011;5880;52.342;9.662;2022-07-29T11:39:32;5.03;;;3.17;;
11646;SDS011;5880;52.342;9.662;2022-07-29T11:47:30;3.00;;;2.03;;
11646;SDS011;5880;52.342;9.662;2022-07-29T11:49:59;1.80;;;1.63;;
11646;SDS011;5880;52.342;9.662;2022-07-29T11:52:33;2.42;;;2.17;;
11646;SDS011;5880;52.342;9.662;2022-07-29T11:55:07;3.42;;;1.85;;
11646;SDS011;5880;52.342;9.662;2022-07-29T11:57:37;2.05;;;1.83;;
11646;SDS011;5880;52.342;9.662;2022-07-29T12:00:10;3.40;;;1.83;;
11646;SDS011;5880;52.342;9.662;2022-07-29T12:02:41;2.55;;;2.00;;
11646;SDS011;5880;52.342;9.662;2022-07-29T12:05:09;2.33;;;2.00;;
11646;SDS011;5880;52.342;9.662;2022-07-29T12:07:38;3.05;;;1.95;;
11646;SDS011;5880;52.342;9.662;2022-07-29T12:10:05;5.28;;;2.00;;
11646;SDS011;5880;52.342;9.662;2022-07-29T12:12:33;2.90;;;2.10;;
11646;SDS011;5880;52.342;9.662;2022-07-29T12:15:12;2.35;;;2.08;;
11646;SDS011;5880;52.342;9.662;2022-07-29T12:17:45;2.45;;;1.90;;
11646;SDS011;5880;52.342;9.662;2022-07-29T12:20:12;2.58;;;1.90;;
11646;SDS011;5880;52.342;9.662;2022-07-29T12:22:39;2.28;;;1.77;;
11646;SDS011;5880;52.342;9.662;2022-07-29T12:25:09;2.40;;;2.10;;
11646;SDS011;5880;52.342;9.662;2022-07-29T12:27:40;2.08;;;1.85;;
11646;SDS011;5880;52.342;9.662;2022-07-29T12:30:09;2.20;;;2.00;;
11646;SDS011;5880;52.342;9.662;2022-07-29T12:32:38;2.58;;;2.22;;
11646;SDS011;5880;52.342;9.662;2022-07-29T12:35:15;2.10;;;1.88;;
11646;SDS011;5880;52.342;9.662;2022-07-29T12:37:44;4.70;;;2.10;;
11646;SDS011;5880;52.342;9.662;2022-07-29T12:40:13;2.25;;;2.05;;
11646;SDS011;5880;52.342;9.662;2022-07-29T12:42:42;3.30;;;1.98;;
11646;SDS011;5880;52.342;9.662;2022-07-29T12:45:32;3.03;;;1.90;;
11646;SDS011;5880;52.342;9.662;2022-07-29T12:47:58;3.42;;;1.77;;
11646;SDS011;5880;52.342;9.662;2022-07-29T12:50:24;2.85;;;2.10;;
11646;SDS011;5880;52.342;9.662;2022-07-29T12:52:50;2.03;;;1.70;;
11646;SDS011;5880;52.342;9.662;2022-07-29T12:55:15;1.88;;;1.75;;
11646;SDS011;5880;52.342;9.662;2022-07-29T12:58:08;2.35;;;1.67;;
11646;SDS011;5880;52.342;9.662;2022-07-29T13:00:34;2.55;;;2.03;;
11646;SDS011;5880;52.342;9.662;2022-07-29T13:03:00;2.10;;;1.73;;
11646;SDS011;5880;52.342;9.662;2022-07-29T13:05:39;2.10;;;1.90;;
11646;SDS011;5880;52.342;9.662;2022-07-29T13:08:14;2.20;;;2.00;;
11646;SDS011;5880;52.342;9.662;2022-07-29T13:10:43;3.42;;;2.15;;
11646;SDS011;5880;52.342;9.662;2022-07-29T13:15:37;3.08;;;1.98;;
11646;SDS011;5880;52.342;9.662;2022-07-29T13:18:27;2.35;;;2.00;;
11646;SDS011;5880;52.342;9.662;2022-07-29T13:21:12;2.58;;;2.05;;
11646;SDS011;5880;52.342;9.662;2022-07-29T13:23:40;2.10;;;1.90;;
11646;SDS011;5880;52.342;9.662;2022-07-29T13:26:08;2.05;;;1.83;;
11646;SDS011;5880;52.342;9.662;2022-07-29T13:28:41;2.35;;;2.00;;
11646;SDS011;5880;52.342;9.662;2022-07-29T13:31:06;3.45;;;2.10;;
11646;SDS011;5880;52.342;9.662;2022-07-29T13:33:32;2.03;;;1.83;;
11646;SDS011;5880;52.342;9.662;2022-07-29T13:35:58;4.53;;;2.97;;
11646;SDS011;5880;52.342;9.662;2022-07-29T13:38:23;12.77;;;6.53;;
11646;SDS011;5880;52.342;9.662;2022-07-29T13:40:49;12.70;;;6.35;;
11646;SDS011;5880;52.342;9.662;2022-07-29T13:43:15;5.68;;;3.75;;
11646;SDS011;5880;52.342;9.662;2022-07-29T13:45:41;6.10;;;3.22;;
11646;SDS011;5880;52.342;9.662;2022-07-29T13:48:06;17.77;;;7.55;;
11646;SDS011;5880;52.342;9.662;2022-07-29T13:50:32;9.82;;;5.05;;
11646;SDS011;5880;52.342;9.662;2022-07-29T13:52:58;8.75;;;4.75;;
11646;SDS011;5880;52.342;9.662;2022-07-29T13:55:24;4.90;;;3.47;;
11646;SDS011;5880;52.342;9.662;2022-07-29T13:57:49;3.53;;;2.90;;
11646;SDS011;5880;52.342;9.662;2022-07-29T14:00:15;3.92;;;2.80;;
11646;SDS011;5880;52.342;9.662;2022-07-29T14:02:41;4.60;;;3.35;;
11646;SDS011;5880;52.342;9.662;2022-07-29T14:05:07;6.65;;;4.40;;
11646;SDS011;5880;52.342;9.662;2022-07-29T14:07:34;7.55;;;3.55;;
11646;SDS011;5880;52.342;9.662;2022-07-29T14:10:03;4.38;;;3.05;;
11646;SDS011;5880;52.342;9.662;2022-07-29T14:12:30;3.15;;;2.60;;
11646;SDS011;5880;52.342;9.662;2022-07-29T14:14:55;3.80;;;2.80;;
11646;SDS011;5880;52.342;9.662;2022-07-29T14:17:21;4.18;;;2.80;;
11646;SDS011;5880;52.342;9.662;2022-07-29T14:19:47;4.57;;;3.00;;
11646;SDS011;5880;52.342;9.662;2022-07-29T14:22:13;4.03;;;2.60;;
11646;SDS011;5880;52.342;9.662;2022-07-29T14:24:39;3.28;;;2.70;;
11646;SDS011;5880;52.342;9.662;2022-07-29T14:27:06;4.13;;;2.67;;
11646;SDS011;5880;52.342;9.662;2022-07-29T14:29:32;2.67;;;2.47;;
11646;SDS011;5880;52.342;9.662;2022-07-29T14:31:58;2.40;;;2.20;;
11646;SDS011;5880;52.342;9.662;2022-07-29T14:34:24;3.13;;;2.75;;
11646;SDS011;5880;52.342;9.662;2022-07-29T14:36:50;2.85;;;2.53;;
11646;SDS011;5880;52.342;9.662;2022-07-29T14:39:15;5.43;;;3.60;;
11646;SDS011;5880;52.342;9.662;2022-07-29T14:41:41;4.72;;;3.20;;
11646;SDS011;5880;52.342;9.662;2022-07-29T14:44:08;8.23;;;3.83;;
11646;SDS011;5880;52.342;9.662;2022-07-29T14:46:34;8.02;;;3.90;;
11646;SDS011;5880;52.342;9.662;2022-07-29T14:49:00;4.47;;;3.35;;
11646;SDS011;5880;52.342;9.662;2022-07-29T14:51:25;5.20;;;3.63;;
11646;SDS011;5880;52.342;9.662;2022-07-29T14:53:51;6.93;;;3.88;;
11646;SDS011;5880;52.342;9.662;2022-07-29T14:56:17;8.48;;;4.75;;
11646;SDS011;5880;52.342;9.662;2022-07-29T14:58:42;7.38;;;4.43;;
11646;SDS011;5880;52.342;9.662;2022-07-29T15:01:08;10.20;;;4.57;;
11646;SDS011;5880;52.342;9.662;2022-07-29T15:03:34;35.47;;;18.17;;
11646;SDS011;5880;52.342;9.662;2022-07-29T15:05:59;15.68;;;8.25;;
11646;SDS011;5880;52.342;9.662;2022-07-29T15:08:25;9.38;;;5.88;;
11646;SDS011;5880;52.342;9.662;2022-07-29T15:10:53;5.50;;;4.15;;
11646;SDS011;5880;52.342;9.662;2022-07-29T15:13:18;5.47;;;3.47;;
11646;SDS011;5880;52.342;9.662;2022-07-29T15:15:44;4.78;;;2.63;;
11646;SDS011;5880;52.342;9.662;2022-07-29T15:18:10;3.83;;;2.78;;
11646;SDS011;5880;52.342;9.662;2022-07-29T15:20:36;2.85;;;2.60;;
11646;SDS011;5880;52.342;9.662;2022-07-29T15:23:02;3.35;;;2.50;;
11646;SDS011;5880;52.342;9.662;2022-07-29T15:25:27;2.92;;;2.50;;
11646;SDS011;5880;52.342;9.662;2022-07-29T15:27:53;3.63;;;2.50;;
11646;SDS011;5880;52.342;9.662;2022-07-29T15:30:19;2.80;;;2.55;;
11646;SDS011;5880;52.342;9.662;2022-07-29T15:32:45;4.55;;;2.50;;
11646;SDS011;5880;52.342;9.662;2022-07-29T15:35:11;5.00;;;2.83;;
11646;SDS011;5880;52.342;9.662;2022-07-29T15:37:39;5.00;;;3.88;;
11646;SDS011;5880;52.342;9.662;2022-07-29T15:40:05;9.95;;;5.43;;
11646;SDS011;5880;52.342;9.662;2022-07-29T15:42:31;11.13;;;5.55;;
11646;SDS011;5880;52.342;9.662;2022-07-29T15:45:00;8.32;;;5.00;;
11646;SDS011;5880;52.342;9.662;2022-07-29T15:47:27;8.63;;;4.65;;
11646;SDS011;5880;52.342;9.662;2022-07-29T15:49:53;4.88;;;3.83;;
11646;SDS011;5880;52.342;9.662;2022-07-29T15:52:20;4.43;;;3.20;;
11646;SDS011;5880;52.342;9.662;2022-07-29T15:54:46;5.18;;;3.35;;
11646;SDS011;5880;52.342;9.662;2022-07-29T15:57:12;5.93;;;3.30;;
11646;SDS011;5880;52.342;9.662;2022-07-29T15:59:38;11.60;;;6.53;;
11646;SDS011;5880;52.342;9.662;2022-07-29T16:02:04;5.78;;;3.97;;
11646;SDS011;5880;52.342;9.662;2022-07-29T16:04:30;3.50;;;2.97;;